Time;durP1;ratioP1;P1;durP2;ratioP2;P2;SDS_P1;SDS_P2;PMS_P1;PMS_P2;Temp;Humidity;BMP_temperature;BMP_pressure;BME280_temperature;BME280_humidity;BME280_pressure;Samples;Min_cycle;Max_cycle;Signal;HPM_P1;HPM_P2
2022/05/29 00:02:06;;;;;;;6.60;6.20;;;9.00;21.70;;;;;;4996300;28;20192;-66
2022/05/29 00:04:32;;;;;;;7.50;7.10;;;9.00;21.80;;;;;;4995254;28;20322;-67
2022/05/29 00:06:58;;;;;;;6.60;6.00;;;9.00;21.70;;;;;;4996066;28;20833;-67
2022/05/29 00:09:39;;;;;;;6.70;6.30;;;8.90;21.80;;;;;;4996250;28;20458;-67
2022/05/29 00:12:07;;;;;;;6.50;6.07;;;8.80;21.70;;;;;;4995716;28;20466;-68
2022/05/29 00:14:34;;;;;;;6.43;6.13;;;8.70;22.00;;;;;;4996343;28;20899;-66
2022/05/29 00:17:00;;;;;;;7.60;7.03;;;8.70;22.50;;;;;;4995991;28;20411;-67
2022/05/29 00:19:26;;;;;;;6.90;6.50;;;8.70;22.50;;;;;;4995952;28;20908;-68
2022/05/29 00:21:51;;;;;;;6.53;6.13;;;8.70;22.50;;;;;;4995534;28;20204;-69
2022/05/29 00:24:17;;;;;;;6.63;6.30;;;8.70;22.50;;;;;;4995952;28;20412;-67
2022/05/29 00:26:43;;;;;;;6.80;6.30;;;8.70;22.50;;;;;;4995874;28;20187;-66
2022/05/29 00:29:09;;;;;;;7.70;6.87;;;8.60;22.40;;;;;;4994555;28;20716;-66
2022/05/29 00:31:35;;;;;;;6.37;6.00;;;8.60;22.40;;;;;;4995303;28;20211;-66
2022/05/29 00:34:01;;;;;;;6.10;5.60;;;8.60;22.40;;;;;;4994337;28;20415;-67
2022/05/29 00:36:31;;;;;;;6.77;6.30;;;8.60;22.40;;;;;;4994494;28;20414;-66
2022/05/29 00:38:57;;;;;;;7.20;6.77;;;8.60;22.40;;;;;;4994646;28;20515;-66
2022/05/29 00:41:27;;;;;;;6.20;5.70;;;8.60;22.50;;;;;;4994124;28;20533;-66
2022/05/29 00:44:13;;;;;;;7.10;6.53;;;8.60;22.40;;;;;;4995486;28;20196;-67
2022/05/29 00:46:46;;;;;;;6.17;5.73;;;8.50;22.60;;;;;;4995498;28;20429;-67
2022/05/29 00:49:14;;;;;;;5.93;5.63;;;8.50;22.60;;;;;;4978182;28;20431;-67
2022/05/29 00:51:46;;;;;;;5.00;4.80;;;8.40;23.10;;;;;;4994816;28;20874;-67
2022/05/29 00:54:13;;;;;;;5.80;5.40;;;8.50;23.40;;;;;;4995337;28;20423;-67
2022/05/29 00:56:39;;;;;;;5.73;5.43;;;8.40;23.20;;;;;;4995246;28;20417;-66
2022/05/29 00:59:12;;;;;;;5.70;5.40;;;8.40;23.00;;;;;;4995180;28;20420;-66
2022/05/29 01:01:38;;;;;;;5.60;5.30;;;8.40;23.10;;;;;;4993921;28;20439;-66
2022/05/29 01:04:05;;;;;;;5.63;5.30;;;8.30;23.40;;;;;;4995567;28;20504;-66
2022/05/29 01:06:30;;;;;;;5.60;5.10;;;8.30;23.50;;;;;;4995075;28;20426;-66
2022/05/29 01:08:59;;;;;;;5.30;4.93;;;8.30;23.60;;;;;;4995159;28;20428;-66
2022/05/29 01:11:43;;;;;;;5.37;5.00;;;8.30;23.60;;;;;;4994782;28;20574;-67
2022/05/29 01:14:23;;;;;;;5.80;5.50;;;8.40;23.40;;;;;;4994928;28;20418;-67
2022/05/29 01:16:51;;;;;;;5.50;5.10;;;8.40;23.40;;;;;;4993969;28;20462;-66
2022/05/29 01:19:54;;;;;;;6.60;6.27;;;8.40;23.40;;;;;;4993521;28;20420;-66
2022/05/29 01:22:46;;;;;;;6.43;6.13;;;8.50;23.10;;;;;;4994524;28;20505;-67
2022/05/29 01:25:26;;;;;;;5.10;4.90;;;8.50;22.90;;;;;;4994904;28;20418;-67
2022/05/29 01:28:11;;;;;;;6.87;6.47;;;8.50;22.90;;;;;;4993716;28;20486;-67
2022/05/29 01:30:44;;;;;;;7.43;6.83;;;8.60;22.40;;;;;;4993306;28;20434;-66
2022/05/29 01:33:21;;;;;;;6.77;6.27;;;8.70;22.50;;;;;;4994432;28;20558;-68
2022/05/29 01:36:08;;;;;;;6.37;5.97;;;8.70;22.50;;;;;;4994936;28;20415;-67
2022/05/29 01:38:40;;;;;;;6.70;6.30;;;8.70;22.50;;;;;;4994589;28;20503;-68
2022/05/29 01:41:21;;;;;;;7.90;7.40;;;8.70;22.50;;;;;;4994492;28;20845;-71
2022/05/29 01:44:09;;;;;;;6.83;6.40;;;8.80;22.60;;;;;;4993695;28;20463;-66
2022/05/29 01:46:35;;;;;;;7.43;7.03;;;8.70;22.50;;;;;;4993166;28;20469;-66
2022/05/29 01:49:13;;;;;;;7.50;6.97;;;8.80;22.60;;;;;;4994593;28;20498;-66
2022/05/29 01:52:00;;;;;;;7.60;7.20;;;8.90;21.90;;;;;;4995488;22;20276;-66
2022/05/29 01:54:50;;;;;;;8.93;8.03;;;8.80;22.00;;;;;;4955647;29;20409;-66
2022/05/29 01:57:20;;;;;;;8.70;8.10;;;8.90;21.80;;;;;;4955478;29;20410;-66
2022/05/29 02:00:04;;;;;;;8.30;7.67;;;8.90;21.60;;;;;;4954024;29;20413;-66
2022/05/29 02:02:38;;;;;;;8.70;8.10;;;8.90;21.40;;;;;;4955206;28;20894;-66
2022/05/29 02:05:09;;;;;;;7.17;6.77;;;9.00;21.40;;;;;;4955380;29;20465;-66
2022/05/29 02:07:47;;;;;;;7.40;7.00;;;8.90;21.60;;;;;;4955358;29;20418;-67
2022/05/29 02:10:28;;;;;;;8.00;7.33;;;8.90;21.30;;;;;;4955319;29;20767;-66
2022/05/29 02:13:14;;;;;;;8.13;7.73;;;8.90;21.30;;;;;;4954941;28;20465;-67
2022/05/29 02:15:55;;;;;;;6.73;6.40;;;8.90;21.50;;;;;;4955273;29;20505;-67
2022/05/29 02:18:43;;;;;;;7.00;6.70;;;8.80;21.40;;;;;;4955060;29;20778;-66
2022/05/29 02:21:12;;;;;;;7.83;7.43;;;8.90;21.40;;;;;;4955211;28;20496;-66
2022/05/29 02:23:42;;;;;;;6.83;6.53;;;8.80;21.10;;;;;;4954998;29;20416;-66
2022/05/29 02:26:12;;;;;;;7.63;7.23;;;8.80;21.20;;;;;;4954979;29;20504;-67
2022/05/29 02:28:43;;;;;;;6.63;6.33;;;8.70;21.20;;;;;;4954944;29;20493;-67
2022/05/29 02:31:26;;;;;;;7.17;6.67;;;8.60;21.40;;;;;;4954775;28;20441;-66
2022/05/29 02:34:01;;;;;;;6.93;6.43;;;8.50;21.50;;;;;;4955044;29;20421;-66
2022/05/29 02:36:44;;;;;;;7.20;6.60;;;8.40;21.60;;;;;;4954977;29;20415;-66
2022/05/29 02:39:27;;;;;;;6.53;6.20;;;8.30;21.70;;;;;;4954751;29;20405;-66
2022/05/29 02:42:26;;;;;;;7.23;6.80;;;8.30;22.20;;;;;;4954550;28;20942;-66
2022/05/29 02:45:03;;;;;;;6.23;5.83;;;8.30;22.20;;;;;;4954600;29;20559;-66
2022/05/29 02:47:55;;;;;;;6.07;5.67;;;8.20;22.50;;;;;;4953264;29;20428;-67
2022/05/29 02:50:36;;;;;;;6.10;5.57;;;8.10;23.00;;;;;;4954623;28;20779;-66
2022/05/29 02:53:10;;;;;;;5.43;5.10;;;8.10;23.60;;;;;;4954181;28;20564;-68
2022/05/29 02:55:36;;;;;;;5.40;4.90;;;8.00;23.80;;;;;;4954567;29;20419;-66
2022/05/29 02:58:05;;;;;;;7.10;5.40;;;7.90;24.10;;;;;;4954445;29;20669;-66
2022/05/29 03:01:02;;;;;;;4.37;4.17;;;7.90;24.50;;;;;;4954497;29;20464;-66
2022/05/29 03:03:51;;;;;;;5.37;4.97;;;7.90;24.60;;;;;;4954246;29;20427;-66
2022/05/29 03:06:27;;;;;;;4.77;4.37;;;7.90;25.00;;;;;;4954311;29;20463;-66
2022/05/29 03:09:11;;;;;;;6.67;4.80;;;7.90;24.90;;;;;;4954491;29;20479;-67
2022/05/29 03:11:42;;;;;;;4.83;4.53;;;8.00;24.80;;;;;;4952823;28;20497;-66
2022/05/29 03:14:24;;;;;;;7.13;5.63;;;7.90;24.70;;;;;;4954133;29;20964;-66
2022/05/29 03:17:12;;;;;;;6.82;6.32;;;8.00;24.60;;;;;;4954335;29;20411;-66
2022/05/29 03:19:46;;;;;;;5.20;4.90;;;8.00;24.20;;;;;;4954434;28;20686;-66
2022/05/29 03:22:30;;;;;;;7.03;5.50;;;8.10;24.40;;;;;;4953713;28;20430;-66
2022/05/29 03:25:04;;;;;;;5.93;5.53;;;8.00;24.70;;;;;;4953551;28;20424;-66
2022/05/29 03:27:34;;;;;;;5.80;5.30;;;8.00;24.90;;;;;;4954094;29;20419;-66
2022/05/29 03:30:31;;;;;;;5.67;5.23;;;8.10;24.70;;;;;;4954099;29;20416;-67
2022/05/29 03:32:59;;;;;;;7.80;7.13;;;8.20;24.40;;;;;;4949298;28;20487;-67
2022/05/29 03:35:34;;;;;;;6.77;6.37;;;8.20;24.30;;;;;;4953907;29;20454;-67
2022/05/29 03:38:02;;;;;;;5.33;4.80;;;8.30;23.90;;;;;;4954061;28;20411;-67
2022/05/29 03:40:29;;;;;;;5.53;5.23;;;8.20;24.30;;;;;;4954080;29;20536;-67
2022/05/29 03:42:55;;;;;;;6.37;5.77;;;8.30;24.00;;;;;;4952477;28;20515;-67
2022/05/29 03:45:22;;;;;;;5.67;5.27;;;8.40;23.60;;;;;;4954014;29;20414;-67
2022/05/29 03:47:48;;;;;;;5.33;5.03;;;8.40;24.10;;;;;;4953934;29;20416;-67
2022/05/29 03:50:16;;;;;;;5.80;5.50;;;8.40;23.50;;;;;;4954258;29;20405;-67
2022/05/29 03:52:43;;;;;;;5.80;5.50;;;8.40;23.20;;;;;;4953512;28;20850;-67
2022/05/29 03:55:10;;;;;;;6.80;6.30;;;8.50;23.20;;;;;;4953917;28;20465;-67
2022/05/29 03:57:36;;;;;;;6.43;6.03;;;8.50;23.00;;;;;;4953912;29;20500;-67
2022/05/29 04:00:04;;;;;;;6.27;5.87;;;8.50;23.20;;;;;;4953920;29;20504;-67
2022/05/29 04:02:29;;;;;;;5.60;5.30;;;8.50;23.00;;;;;;4953664;28;20213;-66
2022/05/29 04:04:55;;;;;;;6.03;5.63;;;8.60;23.30;;;;;;4954185;29;20461;-66
2022/05/29 04:12:03;;;;;;;6.90;6.50;;;8.70;23.20;;;;;;4956830;29;20182;-67
2022/05/29 04:12:51;;;;;;;6.47;6.17;;;8.90;22.60;;;;;;4953761;28;20573;-66
2022/05/29 04:15:16;;;;;;;6.50;5.90;;;8.80;23.00;;;;;;4954760;29;20496;-66
2022/05/29 04:17:42;;;;;;;6.57;6.13;;;9.00;22.70;;;;;;4954186;29;20182;-67
2022/05/29 04:20:08;;;;;;;7.43;6.47;;;9.00;22.70;;;;;;4954112;29;20174;-67
2022/05/29 04:22:33;;;;;;;6.83;6.40;;;9.20;22.60;;;;;;4953594;28;20289;-67
2022/05/29 04:24:59;;;;;;;7.20;6.90;;;9.40;22.10;;;;;;4954000;29;20449;-67
2022/05/29 04:27:24;;;;;;;7.40;7.00;;;9.60;21.80;;;;;;4953855;29;20640;-67
2022/05/29 04:29:50;;;;;;;8.40;7.83;;;9.60;21.30;;;;;;4954055;29;20178;-67
2022/05/29 04:34:59;;;;;;;8.90;8.50;;;10.00;19.70;;;;;;4953954;29;20617;-67
2022/05/29 04:37:28;;;;;;;9.77;9.27;;;10.30;19.10;;;;;;4955684;28;20411;-67
2022/05/29 04:39:53;;;;;;;9.97;9.47;;;10.50;18.70;;;;;;4955751;29;20273;-67
2022/05/29 04:42:19;;;;;;;10.50;10.00;;;10.60;18.80;;;;;;4956802;28;20978;-67
2022/05/29 04:44:44;;;;;;;9.90;9.50;;;10.90;17.60;;;;;;4957014;29;20667;-67
2022/05/29 04:47:10;;;;;;;10.07;9.57;;;11.10;17.20;;;;;;4957275;29;20189;-67
2022/05/29 04:49:38;;;;;;;11.30;10.50;;;11.40;17.10;;;;;;4957384;29;20663;-67
2022/05/29 04:52:05;;;;;;;11.57;11.07;;;11.60;16.40;;;;;;4956954;28;20581;-67
2022/05/29 04:54:37;;;;;;;11.50;11.00;;;12.00;15.90;;;;;;4957086;28;20508;-67
2022/05/29 04:57:04;;;;;;;13.27;12.70;;;13.00;15.60;;;;;;4957170;28;20417;-66
2022/05/29 04:59:29;;;;;;;13.07;12.53;;;14.20;13.60;;;;;;4956822;28;20422;-67
2022/05/29 05:01:58;;;;;;;13.90;13.40;;;15.00;11.60;;;;;;4956484;28;20525;-67
2022/05/29 05:04:24;;;;;;;13.70;13.10;;;15.70;9.20;;;;;;4956865;28;20550;-66
2022/05/29 05:06:52;;;;;;;14.30;13.60;;;15.90;9.20;;;;;;4956633;28;20438;-66
2022/05/29 05:09:18;;;;;;;14.73;14.13;;;16.20;9.50;;;;;;4957201;28;20194;-66
2022/05/29 05:11:43;;;;;;;14.03;13.43;;;16.80;8.80;;;;;;4956710;28;20477;-67
2022/05/29 05:14:09;;;;;;;15.03;14.33;;;17.20;7.80;;;;;;4956943;29;20189;-66
2022/05/29 05:16:34;;;;;;;15.73;15.13;;;17.70;7.70;;;;;;4956604;29;20265;-66
2022/05/29 05:19:00;;;;;;;15.63;15.03;;;18.50;6.70;;;;;;4957322;29;20202;-67
2022/05/29 05:21:25;;;;;;;15.67;15.07;;;19.40;6.20;;;;;;4956421;28;20417;-67
2022/05/29 05:23:51;;;;;;;15.50;14.90;;;20.40;4.90;;;;;;4956782;29;20190;-67
2022/05/29 05:26:16;;;;;;;16.40;15.70;;;21.10;3.70;;;;;;4955546;29;20189;-67
2022/05/29 05:28:42;;;;;;;15.47;14.87;;;22.10;2.50;;;;;;4956345;29;20178;-67
2022/05/29 05:31:08;;;;;;;16.37;15.67;;;22.80;1.00;;;;;;4956063;28;20198;-67
2022/05/29 05:33:33;;;;;;;16.67;15.97;;;23.80;1.00;;;;;;4956198;29;20468;-67
2022/05/29 05:35:59;;;;;;;16.00;15.40;;;24.50;1.00;;;;;;4956196;29;20190;-66
2022/05/29 05:38:24;;;;;;;16.70;16.10;;;25.20;1.00;;;;;;4956184;29;20197;-66
2022/05/29 05:40:50;;;;;;;17.47;16.67;;;25.70;1.00;;;;;;4956136;28;20576;-67
2022/05/29 05:43:19;;;;;;;17.13;16.43;;;26.10;1.00;;;;;;4955808;29;20198;-66
2022/05/29 05:45:45;;;;;;;16.80;16.20;;;25.60;1.00;;;;;;4957439;29;20213;-67
2022/05/29 05:48:11;;;;;;;15.70;15.10;;;24.60;1.00;;;;;;4955845;28;20425;-67
2022/05/29 05:50:38;;;;;;;15.63;14.93;;;23.50;1.00;;;;;;4955754;29;20982;-67
2022/05/29 05:53:03;;;;;;;16.77;16.07;;;22.50;1.00;;;;;;4955570;28;20308;-66
2022/05/29 05:55:29;;;;;;;17.30;16.60;;;22.30;1.00;;;;;;4956039;29;20859;-67
2022/05/29 05:57:55;;;;;;;15.90;15.30;;;22.00;1.00;;;;;;4938084;29;20190;-67
2022/05/29 06:00:21;;;;;;;16.63;15.93;;;21.50;1.00;;;;;;4936661;29;20181;-70
2022/05/29 06:02:47;;;;;;;15.90;15.10;;;21.00;1.00;;;;;;4944085;29;20225;-67
2022/05/29 06:05:15;;;;;;;16.10;15.50;;;20.50;1.00;;;;;;4955903;29;20453;-67
2022/05/29 06:07:41;;;;;;;16.17;15.47;;;20.40;1.00;;;;;;4956134;28;20189;-67
2022/05/29 06:10:08;;;;;;;15.83;15.13;;;20.20;1.20;;;;;;4955536;28;20414;-67
2022/05/29 06:12:34;;;;;;;16.17;15.37;;;19.90;1.70;;;;;;4954904;28;20511;-66
2022/05/29 06:14:59;;;;;;;15.40;14.80;;;20.20;2.30;;;;;;4955199;28;20844;-66
2022/05/29 06:17:26;;;;;;;16.20;15.40;;;20.70;2.30;;;;;;4955298;29;20558;-68
2022/05/29 06:19:52;;;;;;;16.13;15.43;;;21.80;1.40;;;;;;4955233;28;20655;-66
2022/05/29 06:22:18;;;;;;;15.53;14.83;;;22.30;1.00;;;;;;4954915;28;20576;-67
2022/05/29 06:24:43;;;;;;;16.50;15.37;;;23.00;1.00;;;;;;4955216;29;20186;-67
2022/05/29 06:27:09;;;;;;;15.83;15.13;;;23.70;1.00;;;;;;4955087;28;20190;-66
2022/05/29 06:29:34;;;;;;;16.70;15.80;;;22.60;1.00;;;;;;4953729;29;20177;-67
2022/05/29 06:32:03;;;;;;;16.03;15.43;;;23.40;1.00;;;;;;4954635;28;20234;-67
2022/05/29 06:34:29;;;;;;;16.30;15.60;;;24.60;1.00;;;;;;4954793;28;20261;-67
2022/05/29 06:36:55;;;;;;;16.63;15.93;;;25.50;1.00;;;;;;4955070;28;20425;-68
2022/05/29 06:39:22;;;;;;;15.73;15.13;;;26.70;1.00;;;;;;4954928;29;20405;-68
2022/05/29 06:41:48;;;;;;;16.53;15.93;;;25.00;1.00;;;;;;4954710;28;20212;-68
2022/05/29 06:44:14;;;;;;;15.33;14.73;;;22.50;1.00;;;;;;4955097;28;20460;-67
2022/05/29 06:46:39;;;;;;;16.10;15.50;;;23.10;1.00;;;;;;4954872;28;20413;-67
2022/05/29 06:49:05;;;;;;;15.90;15.27;;;20.70;1.00;;;;;;4954757;29;20185;-68
2022/05/29 06:51:31;;;;;;;16.40;15.63;;;21.30;1.60;;;;;;4954100;28;20707;-69
2022/05/29 06:53:57;;;;;;;15.13;14.63;;;21.40;1.00;;;;;;4954566;29;20413;-68
2022/05/29 06:56:24;;;;;;;15.40;14.80;;;19.60;1.50;;;;;;4954591;28;20538;-67
2022/05/29 06:58:50;;;;;;;16.33;15.63;;;18.30;4.20;;;;;;4954186;28;20787;-68
2022/05/29 07:07:00;;;;;;;15.40;14.70;;;17.30;5.70;;;;;;4934656;29;20406;-67
2022/05/29 07:09:39;;;;;;;15.50;14.80;;;17.70;6.00;;;;;;4934517;29;20414;-67
2022/05/29 07:12:16;;;;;;;15.17;14.40;;;18.30;5.50;;;;;;4934845;29;20297;-67
2022/05/29 07:14:57;;;;;;;15.13;14.33;;;18.80;4.80;;;;;;4935481;29;20781;-67
2022/05/29 07:17:24;;;;;;;16.73;15.10;;;18.80;4.80;;;;;;4935314;29;20469;-67
2022/05/29 07:19:49;;;;;;;15.30;14.60;;;18.40;5.50;;;;;;4935610;29;20427;-65
2022/05/29 07:22:15;;;;;;;14.97;14.23;;;17.00;6.50;;;;;;4935700;29;20959;-66
2022/05/29 07:24:41;;;;;;;14.60;14.00;;;15.50;9.20;;;;;;4935510;29;20194;-65
2022/05/29 07:27:08;;;;;;;13.50;13.00;;;15.60;10.20;;;;;;4935301;29;20181;-66
2022/05/29 07:29:34;;;;;;;13.57;12.80;;;14.30;11.30;;;;;;4934950;29;20429;-66
2022/05/29 07:32:00;;;;;;;13.83;13.03;;;14.20;12.60;;;;;;4934696;29;20471;-66
2022/05/29 07:34:27;;;;;;;12.37;11.87;;;14.00;13.50;;;;;;4935039;29;20416;-66
2022/05/29 07:36:55;;;;;;;12.67;12.07;;;13.80;14.50;;;;;;4934812;29;20193;-66
2022/05/29 07:39:21;;;;;;;11.50;11.00;;;13.00;15.00;;;;;;4934979;29;20422;-66
2022/05/29 07:44:30;;;;;;;12.10;11.57;;;12.60;16.20;;;;;;4934978;29;20501;-67
2022/05/29 07:46:56;;;;;;;11.40;10.90;;;13.10;16.20;;;;;;4934931;29;20946;-67
2022/05/29 07:49:23;;;;;;;10.50;10.00;;;12.90;15.50;;;;;;4934712;29;20183;-66
2022/05/29 07:51:49;;;;;;;10.67;9.83;;;12.50;17.20;;;;;;4934935;29;20474;-67
2022/05/29 07:54:14;;;;;;;9.47;9.07;;;11.90;18.90;;;;;;4935266;29;20407;-66
2022/05/29 07:56:40;;;;;;;10.00;9.50;;;12.20;19.20;;;;;;4935238;29;20912;-66
2022/05/29 07:59:06;;;;;;;9.43;9.03;;;12.40;18.90;;;;;;4935054;29;20180;-68
2022/05/29 08:01:32;;;;;;;10.03;9.53;;;12.30;18.40;;;;;;4934558;29;20388;-67
2022/05/29 08:03:58;;;;;;;9.60;9.10;;;11.90;17.90;;;;;;4935050;29;20456;-67
2022/05/29 08:06:24;;;;;;;10.10;9.53;;;12.20;18.10;;;;;;4934574;29;20482;-67
2022/05/29 08:08:49;;;;;;;10.83;10.13;;;12.50;17.10;;;;;;4934867;29;20212;-67
2022/05/29 08:11:17;;;;;;;10.90;10.40;;;12.80;17.30;;;;;;4936227;29;20466;-67
2022/05/29 08:13:43;;;;;;;10.37;9.87;;;12.70;15.90;;;;;;4938538;29;20210;-66
2022/05/29 08:16:08;;;;;;;11.80;10.90;;;12.70;15.90;;;;;;4938682;29;20901;-68
2022/05/29 08:18:34;;;;;;;10.90;10.37;;;13.00;16.10;;;;;;4938322;29;20941;-67
2022/05/29 08:21:00;;;;;;;11.67;10.90;;;13.00;15.10;;;;;;4938236;29;20189;-67
2022/05/29 08:23:26;;;;;;;10.80;10.20;;;13.40;15.20;;;;;;4938079;29;20179;-67
2022/05/29 08:31:22;;;;;;;11.37;10.87;;;13.70;14.80;;;;;;4937907;29;20437;-67
2022/05/29 08:33:47;;;;;;;11.40;11.00;;;13.90;14.40;;;;;;4937930;29;20904;-66
2022/05/29 08:36:18;;;;;;;11.90;11.40;;;13.90;14.30;;;;;;4938369;29;20179;-67
2022/05/29 08:38:46;;;;;;;12.60;11.70;;;14.10;13.60;;;;;;4938117;29;20190;-66
2022/05/29 08:41:39;;;;;;;11.77;11.33;;;14.40;13.60;;;;;;4937589;29;20933;-66
2022/05/29 08:44:06;;;;;;;11.60;11.10;;;14.60;13.60;;;;;;4937971;29;20418;-66
2022/05/29 08:46:40;;;;;;;12.80;11.73;;;14.80;13.00;;;;;;4937930;29;20450;-66
2022/05/29 08:49:11;;;;;;;11.90;11.40;;;14.80;13.00;;;;;;4937882;29;20467;-66
2022/05/29 08:52:14;;;;;;;13.07;12.37;;;15.10;13.20;;;;;;4937443;29;20485;-66
2022/05/29 08:54:43;;;;;;;12.00;11.40;;;14.50;12.80;;;;;;4937885;29;20947;-66
2022/05/29 08:57:41;;;;;;;11.60;11.10;;;14.70;12.70;;;;;;4937894;29;20803;-66
2022/05/29 09:00:20;;;;;;;13.20;12.60;;;14.60;12.80;;;;;;4937951;29;20432;-66
2022/05/29 09:03:03;;;;;;;12.40;11.90;;;14.60;12.80;;;;;;4937437;29;20481;-66
2022/05/29 09:05:48;;;;;;;11.07;10.63;;;14.30;13.50;;;;;;4937635;29;20446;-66
2022/05/29 09:08:20;;;;;;;12.83;12.03;;;14.60;13.40;;;;;;4937608;29;20911;-67
2022/05/29 09:10:49;;;;;;;12.00;11.50;;;15.20;13.20;;;;;;4937259;29;20433;-67
2022/05/29 09:13:20;;;;;;;11.30;10.80;;;15.80;11.80;;;;;;4937158;29;20473;-67
2022/05/29 09:15:51;;;;;;;13.63;12.90;;;16.10;11.60;;;;;;4937696;29;20456;-67
2022/05/29 09:18:24;;;;;;;12.43;11.83;;;16.40;10.40;;;;;;4937416;29;20799;-66
2022/05/29 09:20:54;;;;;;;13.27;12.67;;;16.90;9.00;;;;;;4937857;29;20521;-67
2022/05/29 09:23:29;;;;;;;13.30;12.60;;;16.90;8.90;;;;;;4936143;29;20787;-67
2022/05/29 09:25:56;;;;;;;12.53;12.03;;;17.30;8.40;;;;;;4937613;29;20843;-67
2022/05/29 09:28:39;;;;;;;12.87;12.17;;;17.30;8.50;;;;;;4937128;29;20421;-67
2022/05/29 09:31:16;;;;;;;13.03;12.47;;;15.80;9.00;;;;;;4937061;29;20520;-66
2022/05/29 09:33:42;;;;;;;11.97;11.13;;;15.40;11.30;;;;;;4936796;29;20464;-67
2022/05/29 09:36:45;;;;;;;10.33;9.83;;;14.30;14.10;;;;;;4937059;29;20416;-67
2022/05/29 09:39:22;;;;;;;9.60;8.97;;;13.30;17.10;;;;;;4936898;29;20777;-66
2022/05/29 09:41:47;;;;;;;7.27;6.67;;;12.90;21.00;;;;;;4936458;29;20438;-65
2022/05/29 09:44:16;;;;;;;7.40;6.80;;;12.00;22.60;;;;;;4936791;29;20809;-66
2022/05/29 09:46:47;;;;;;;5.57;5.27;;;12.20;24.00;;;;;;4936929;29;20700;-66
2022/05/29 09:52:09;;;;;;;5.77;5.37;;;12.50;22.60;;;;;;4936386;29;20496;-66
2022/05/29 09:55:12;;;;;;;7.77;5.97;;;12.50;22.20;;;;;;4937408;29;20425;-66
2022/05/29 09:57:48;;;;;;;5.57;5.17;;;12.30;21.90;;;;;;4936650;29;20530;-65
2022/05/29 10:00:23;;;;;;;5.23;4.93;;;12.30;23.70;;;;;;4936827;29;21058;-66
2022/05/29 10:02:49;;;;;;;4.87;4.40;;;11.60;23.30;;;;;;4936366;29;20837;-67
2022/05/29 10:05:25;;;;;;;5.37;4.50;;;11.50;28.50;;;;;;4936484;29;20426;-67
2022/05/29 10:07:53;;;;;;;5.77;4.80;;;11.30;27.70;;;;;;4936619;29;20668;-67
2022/05/29 10:10:24;;;;;;;4.27;3.87;;;11.00;28.50;;;;;;4936477;29;20429;-66
2022/05/29 10:12:51;;;;;;;5.30;3.57;;;11.00;31.80;;;;;;4934673;29;20475;-66
2022/05/29 10:15:25;;;;;;;3.83;3.23;;;11.10;33.70;;;;;;4936225;29;20536;-65
2022/05/29 10:18:05;;;;;;;6.90;3.83;;;11.30;35.90;;;;;;4936351;29;20499;-66
2022/05/29 10:20:35;;;;;;;6.30;3.70;;;11.40;37.40;;;;;;4936664;29;20784;-66
2022/05/29 10:23:07;;;;;;;4.70;3.30;;;11.60;37.60;;;;;;4935680;29;20444;-66
2022/05/29 10:25:36;;;;;;;4.20;2.97;;;11.80;35.40;;;;;;4936409;29;20429;-67
2022/05/29 10:28:11;;;;;;;3.60;3.30;;;12.10;31.60;;;;;;4937774;29;20442;-66
2022/05/29 10:30:44;;;;;;;11.73;5.43;;;12.70;34.10;;;;;;4936079;29;20456;-65
2022/05/29 10:33:13;;;;;;;5.10;4.70;;;13.30;29.00;;;;;;4935742;29;20861;-66
2022/05/29 10:35:41;;;;;;;6.10;5.67;;;13.90;25.30;;;;;;4936329;29;20599;-65
2022/05/29 10:38:25;;;;;;;8.60;7.77;;;14.30;24.00;;;;;;4935929;29;20456;-65
2022/05/29 10:40:57;;;;;;;6.87;6.47;;;14.70;21.90;;;;;;4936024;29;20925;-65
2022/05/29 10:43:34;;;;;;;9.20;8.57;;;15.00;21.80;;;;;;4935805;29;20432;-67
2022/05/29 10:46:26;;;;;;;10.43;10.00;;;15.20;19.20;;;;;;4935927;29;20425;-66
2022/05/29 10:49:24;;;;;;;10.60;10.07;;;14.60;15.80;;;;;;4935357;29;20440;-66
2022/05/29 10:51:59;;;;;;;9.07;8.30;;;14.90;18.60;;;;;;4935630;29;20481;-67
2022/05/29 10:54:32;;;;;;;10.90;10.00;;;15.40;19.20;;;;;;4935895;29;20420;-67
2022/05/29 10:57:13;;;;;;;10.67;10.00;;;15.40;16.20;;;;;;4935579;29;20483;-66
2022/05/29 11:00:03;;;;;;;10.63;10.13;;;15.70;19.40;;;;;;4935451;29;20545;-66
2022/05/29 11:05:37;;;;;;;12.20;11.60;;;16.20;17.20;;;;;;4935412;29;20575;-67
2022/05/29 11:08:37;;;;;;;11.13;10.53;;;16.70;15.60;;;;;;4935454;29;20414;-67
2022/05/29 11:11:24;;;;;;;12.90;12.30;;;17.10;16.40;;;;;;4935402;29;20522;-68
2022/05/29 11:14:07;;;;;;;13.10;12.50;;;17.40;15.20;;;;;;4935394;29;20555;-68
2022/05/29 11:16:56;;;;;;;13.60;12.90;;;17.40;11.90;;;;;;4935265;29;20418;-67
2022/05/29 11:20:00;;;;;;;12.60;12.10;;;17.40;13.00;;;;;;4935386;29;20794;-67
2022/05/29 11:22:59;;;;;;;11.90;11.40;;;17.50;9.60;;;;;;4934854;29;20798;-66
2022/05/29 11:26:02;;;;;;;11.60;11.20;;;16.00;11.10;;;;;;4935067;29;20418;-68
2022/05/29 11:28:36;;;;;;;10.93;10.43;;;16.60;12.30;;;;;;4935189;29;20421;-67
2022/05/29 11:31:23;;;;;;;11.73;11.23;;;16.80;12.00;;;;;;4934966;29;20405;-65
2022/05/29 11:34:27;;;;;;;11.37;10.83;;;15.60;11.10;;;;;;4934945;29;20429;-68
2022/05/29 11:37:01;;;;;;;9.27;8.87;;;14.10;14.80;;;;;;4934771;29;20988;-66
2022/05/29 11:39:45;;;;;;;8.43;7.77;;;12.00;18.80;;;;;;4935065;29;20418;-66
2022/05/29 11:42:31;;;;;;;8.20;7.80;;;11.60;19.40;;;;;;4934548;29;20458;-66
2022/05/29 11:45:11;;;;;;;7.10;6.80;;;11.60;19.70;;;;;;4934537;29;20499;-66
2022/05/29 11:53:44;;;;;;;7.10;6.60;;;11.50;20.10;;;;;;4934515;29;20989;-66
2022/05/29 11:56:34;;;;;;;6.50;6.20;;;11.20;19.70;;;;;;4934772;29;20453;-66
2022/05/29 11:59:10;;;;;;;7.97;7.37;;;11.60;21.10;;;;;;4934821;29;20417;-67
2022/05/29 12:01:42;;;;;;;8.10;7.67;;;11.80;19.60;;;;;;4934535;29;20434;-66
2022/05/29 12:04:27;;;;;;;7.03;6.73;;;12.00;18.60;;;;;;4934855;29;20780;-67
2022/05/29 12:07:01;;;;;;;7.97;7.30;;;11.70;19.10;;;;;;4934543;29;20820;-66
2022/05/29 12:09:43;;;;;;;8.27;7.67;;;12.00;19.70;;;;;;4934702;29;20429;-67
2022/05/29 12:12:17;;;;;;;7.50;7.20;;;12.30;19.40;;;;;;4934130;29;20532;-66
2022/05/29 12:15:02;;;;;;;7.80;7.50;;;12.20;18.50;;;;;;4934885;29;20461;-66
2022/05/29 12:17:38;;;;;;;8.23;7.83;;;12.20;18.90;;;;;;4935292;29;20959;-68
2022/05/29 12:20:19;;;;;;;7.80;7.40;;;12.30;18.20;;;;;;4934948;29;20503;-65
2022/05/29 12:22:51;;;;;;;8.03;7.63;;;12.20;18.90;;;;;;4934692;29;20452;-66
2022/05/29 12:25:45;;;;;;;6.93;6.63;;;12.70;16.50;;;;;;4934832;29;20425;-67
2022/05/29 12:28:27;;;;;;;7.90;7.60;;;12.40;18.30;;;;;;4935217;29;20599;-65
2022/05/29 12:30:54;;;;;;;8.00;7.70;;;11.90;18.40;;;;;;4935385;29;20924;-67
2022/05/29 12:33:23;;;;;;;7.00;6.70;;;11.40;19.30;;;;;;4934532;29;20468;-66
2022/05/29 12:36:15;;;;;;;8.90;8.40;;;11.50;19.70;;;;;;4934716;29;20483;-66
2022/05/29 12:39:01;;;;;;;5.77;5.37;;;11.50;19.40;;;;;;4935121;29;20790;-67
2022/05/29 12:41:58;;;;;;;7.30;6.90;;;11.60;21.70;;;;;;4934561;29;20445;-64
2022/05/29 12:44:51;;;;;;;7.77;7.37;;;11.60;19.30;;;;;;4934750;29;20413;-67
2022/05/29 12:47:16;;;;;;;7.67;7.27;;;11.70;19.00;;;;;;4934757;29;20505;-66
2022/05/29 12:50:10;;;;;;;7.13;6.83;;;11.80;18.60;;;;;;4934941;29;20449;-67
2022/05/29 12:53:14;;;;;;;6.70;6.30;;;11.60;19.40;;;;;;4933962;29;20215;-67
2022/05/29 12:55:55;;;;;;;6.87;6.37;;;11.60;20.60;;;;;;4934263;29;20797;-68
2022/05/29 12:58:42;;;;;;;6.40;6.10;;;11.90;20.40;;;;;;4936302;29;20444;-66
2022/05/29 13:01:49;;;;;;;6.90;6.60;;;11.80;20.70;;;;;;4937661;29;20431;-66
2022/05/29 13:04:45;;;;;;;7.20;6.80;;;12.10;20.40;;;;;;4936190;29;20425;-66
2022/05/29 13:07:22;;;;;;;7.37;6.87;;;12.40;20.00;;;;;;4937727;29;20947;-66
2022/05/29 13:10:02;;;;;;;8.17;7.80;;;12.70;19.60;;;;;;4937950;29;20414;-67
2022/05/29 13:12:32;;;;;;;9.30;8.80;;;12.90;18.50;;;;;;4937293;29;20808;-67
2022/05/29 13:15:03;;;;;;;9.23;8.83;;;13.10;17.20;;;;;;4937727;29;20422;-68
2022/05/29 13:17:32;;;;;;;8.80;8.40;;;13.00;16.60;;;;;;4937698;29;20445;-67
2022/05/29 13:19:57;;;;;;;8.80;8.50;;;13.00;16.90;;;;;;4937658;29;20957;-65
2022/05/29 13:22:48;;;;;;;9.20;8.70;;;13.20;16.70;;;;;;4937160;29;20533;-68
2022/05/29 13:25:16;;;;;;;8.73;8.33;;;13.10;16.20;;;;;;4936325;29;20269;-68
2022/05/29 13:27:42;;;;;;;10.00;9.60;;;13.30;16.90;;;;;;4937407;29;20473;-66
2022/05/29 13:30:34;;;;;;;10.63;10.20;;;13.60;15.30;;;;;;4937161;29;20939;-66
2022/05/29 13:33:24;;;;;;;11.00;10.50;;;13.70;15.30;;;;;;4937236;29;20462;-66
2022/05/29 13:35:49;;;;;;;9.97;9.57;;;13.40;13.90;;;;;;4936971;29;20398;-65
2022/05/29 13:38:46;;;;;;;9.90;9.50;;;13.30;14.70;;;;;;4937102;29;20853;-65
2022/05/29 13:41:52;;;;;;;11.00;10.60;;;13.10;14.70;;;;;;4936833;29;20202;-65
2022/05/29 13:44:28;;;;;;;9.50;9.10;;;13.30;13.90;;;;;;4937280;29;20806;-68
2022/05/29 13:47:19;;;;;;;10.50;10.00;;;13.30;14.80;;;;;;4936824;29;20411;-66
2022/05/29 13:50:00;;;;;;;9.53;9.23;;;13.40;14.30;;;;;;4936794;29;20506;-67